EFW7HH EGKK-LEAL
Flight info
| Callsign | EFW7HH |
|---|---|
| Flight time | N/A |
| Altitude | 35000 |
| Route | BOGNA L612 BENBO UY47 DRAKE L151 SITET UN859 SOPIL/N0448F370 DCT BALAN DCT LMG DCT PIMQO DCT AGN DCT ANETO DCT TURUV DCT GRAUS DCT LOBAR DCT SEROX DCT CASPE DCT MLA DCT CRETA DCT RIMES DCT SAURA DCT TATOS DCT PLANA DCT VLC |
| Aircraft | A320/M-SDE3FGHIRWY/LB1 |
Departure
| Time | 2026-04-15 16:03 |
|---|---|
| Airport | London Gatwick Airport (EGKK) |
Arrival
| Time | N/A |
|---|---|
| Airport | Alicante-Elche Miguel Hernández Airport (LEAL) |
| Time | Latitude | Longitude | Altitude | Speed | Heading |
|---|---|---|---|---|---|
| 2026-04-15 15:32 | 51.15533 | -0.17171 | 205 ft | 0 kts | 135° |
| 2026-04-15 15:55 | 51.15535 | -0.17175 | 205 ft | 3 kts | 135° |
| 2026-04-15 15:55 | 51.15548 | -0.17194 | 216 ft | 3 kts | 135° |
| 2026-04-15 15:56 | 51.15560 | -0.17214 | 217 ft | 3 kts | 135° |
| 2026-04-15 15:56 | 51.15573 | -0.17233 | 211 ft | 2 kts | 135° |
| 2026-04-15 15:56 | 51.15585 | -0.17252 | 217 ft | 2 kts | 135° |
| 2026-04-15 15:56 | 51.15599 | -0.17269 | 213 ft | 3 kts | 167° |
| 2026-04-15 15:57 | 51.15616 | -0.17270 | 215 ft | 2 kts | 202° |
| 2026-04-15 15:57 | 51.15622 | -0.17268 | 216 ft | 0 kts | 224° |
| 2026-04-15 15:58 | 51.15604 | -0.17298 | 212 ft | 10 kts | 226° |
| 2026-04-15 15:58 | 51.15533 | -0.17313 | 205 ft | 11 kts | 170° |
| 2026-04-15 15:58 | 51.15450 | -0.17282 | 210 ft | 13 kts | 166° |
| 2026-04-15 15:59 | 51.15353 | -0.17248 | 207 ft | 10 kts | 168° |
| 2026-04-15 15:59 | 51.15281 | -0.17217 | 211 ft | 12 kts | 157° |
| 2026-04-15 15:59 | 51.15231 | -0.17163 | 208 ft | 6 kts | 144° |
| 2026-04-15 15:59 | 51.15202 | -0.17110 | 209 ft | 7 kts | 108° |
| 2026-04-15 16:00 | 51.15205 | -0.17025 | 209 ft | 8 kts | 81° |
| 2026-04-15 16:00 | 51.15217 | -0.16940 | 213 ft | 0 kts | 76° |
| 2026-04-15 16:00 | 51.15221 | -0.16908 | 211 ft | 11 kts | 79° |
| 2026-04-15 16:01 | 51.15185 | -0.16802 | 208 ft | 12 kts | 158° |
| 2026-04-15 16:01 | 51.15117 | -0.16864 | 210 ft | 13 kts | 240° |
| 2026-04-15 16:01 | 51.15106 | -0.16929 | 206 ft | 0 kts | 257° |
| 2026-04-15 16:02 | 51.15105 | -0.16930 | 206 ft | 1 kts | 257° |
| 2026-04-15 16:02 | 51.15075 | -0.17149 | 213 ft | 53 kts | 257° |
| 2026-04-15 16:03 | 51.14951 | -0.18041 | 210 ft | 110 kts | 257° |
| 2026-04-15 16:03 | 51.14751 | -0.19479 | 218 ft | 153 kts | 253° |
| 2026-04-15 16:03 | 51.14531 | -0.21232 | 547 ft | 167 kts | 255° |
| 2026-04-15 16:03 | 51.14294 | -0.23050 | 1261 ft | 165 kts | 251° |
| 2026-04-15 16:04 | 51.14043 | -0.24833 | 1741 ft | 176 kts | 253° |
| 2026-04-15 16:04 | 51.13745 | -0.26869 | 2053 ft | 199 kts | 252° |
| 2026-04-15 16:04 | 51.13435 | -0.29027 | 2864 ft | 201 kts | 253° |
| 2026-04-15 16:04 | 51.13127 | -0.31217 | 3745 ft | 203 kts | 253° |
| 2026-04-15 16:05 | 51.12823 | -0.33404 | 4609 ft | 205 kts | 253° |
| 2026-04-15 16:05 | 51.12509 | -0.35661 | 4935 ft | 208 kts | 254° |
| 2026-04-15 16:05 | 51.12197 | -0.37906 | 5289 ft | 208 kts | 253° |
| 2026-04-15 16:05 | 51.11817 | -0.40093 | 6145 ft | 205 kts | 240° |
| 2026-04-15 16:06 | 51.10837 | -0.41698 | 6905 ft | 207 kts | 208° |
| 2026-04-15 16:06 | 51.09397 | -0.42089 | 7671 ft | 218 kts | 183° |
| 2026-04-15 16:06 | 51.07868 | -0.41907 | 8506 ft | 220 kts | 183° |
| 2026-04-15 16:06 | 51.06283 | -0.41700 | 8923 ft | 241 kts | 182° |
| 2026-04-15 16:07 | 51.04556 | -0.41474 | 9418 ft | 254 kts | 182° |
| 2026-04-15 16:07 | 51.02776 | -0.41153 | 10153 ft | 263 kts | 175° |
| 2026-04-15 16:07 | 50.98926 | -0.39541 | 10678 ft | 309 kts | 171° |
| 2026-04-15 16:08 | 50.96813 | -0.38584 | 11123 ft | 321 kts | 170° |
| 2026-04-15 16:08 | 50.94666 | -0.37591 | 11747 ft | 326 kts | 170° |
| 2026-04-15 16:08 | 50.92495 | -0.36585 | 12411 ft | 330 kts | 170° |
| 2026-04-15 16:08 | 50.90437 | -0.35638 | 12995 ft | 333 kts | 170° |
| 2026-04-15 16:09 | 50.88194 | -0.34614 | 13636 ft | 338 kts | 170° |
| 2026-04-15 16:09 | 50.85928 | -0.33583 | 14253 ft | 342 kts | 170° |
| 2026-04-15 16:09 | 50.83622 | -0.32540 | 14865 ft | 344 kts | 170° |
| 2026-04-15 16:09 | 50.81343 | -0.31514 | 15448 ft | 347 kts | 170° |
| 2026-04-15 16:10 | 50.78991 | -0.30457 | 16057 ft | 350 kts | 170° |
| 2026-04-15 16:10 | 50.76628 | -0.29402 | 16663 ft | 352 kts | 170° |
| 2026-04-15 16:10 | 50.74379 | -0.28405 | 16995 ft | 355 kts | 170° |
| 2026-04-15 16:10 | 50.71969 | -0.27336 | 17069 ft | 355 kts | 170° |
| 2026-04-15 16:11 | 50.69603 | -0.26282 | 17084 ft | 355 kts | 170° |
| 2026-04-15 16:11 | 50.67221 | -0.25215 | 17079 ft | 356 kts | 170° |
| 2026-04-15 16:11 | 50.64836 | -0.24145 | 17079 ft | 356 kts | 170° |
| 2026-04-15 16:11 | 50.62457 | -0.23075 | 17077 ft | 357 kts | 170° |
| 2026-04-15 16:12 | 50.60067 | -0.22006 | 17076 ft | 357 kts | 170° |
| 2026-04-15 16:12 | 50.57672 | -0.20942 | 17084 ft | 357 kts | 170° |
| 2026-04-15 16:12 | 50.55283 | -0.19885 | 17074 ft | 358 kts | 170° |
| 2026-04-15 16:12 | 50.52895 | -0.18827 | 17074 ft | 358 kts | 170° |
| 2026-04-15 16:13 | 50.50489 | -0.17762 | 17082 ft | 358 kts | 170° |
| 2026-04-15 16:13 | 50.48106 | -0.16712 | 17079 ft | 359 kts | 170° |
| 2026-04-15 16:13 | 50.45706 | -0.15654 | 17081 ft | 359 kts | 170° |
| 2026-04-15 16:13 | 50.45300 | -0.15475 | 17078 ft | 359 kts | 170° |
| 2026-04-15 16:14 | 50.44615 | -0.15181 | 17391 ft | 306 kts | 169° |
| 2026-04-15 16:14 | 50.43046 | -0.14307 | 20018 ft | 222 kts | 168° |
| 2026-04-15 16:14 | 50.41525 | -0.13493 | 20029 ft | 246 kts | 174° |
| 2026-04-15 16:15 | 50.39802 | -0.12864 | 20234 ft | 265 kts | 174° |
| 2026-04-15 16:15 | 50.37917 | -0.12157 | 20369 ft | 290 kts | 173° |
| 2026-04-15 16:15 | 50.35934 | -0.11368 | 20534 ft | 313 kts | 172° |
| 2026-04-15 16:15 | 50.33742 | -0.10455 | 20678 ft | 337 kts | 171° |
| 2026-04-15 16:16 | 50.31449 | -0.09466 | 20974 ft | 354 kts | 170° |
| 2026-04-15 16:16 | 50.29049 | -0.08398 | 21665 ft | 361 kts | 169° |
| 2026-04-15 16:16 | 50.26650 | -0.07318 | 22487 ft | 364 kts | 169° |
| 2026-04-15 16:16 | 50.24157 | -0.06204 | 23338 ft | 368 kts | 170° |
| 2026-04-15 16:17 | 50.21711 | -0.05123 | 24040 ft | 371 kts | 170° |
| 2026-04-15 16:17 | 50.19212 | -0.04026 | 24630 ft | 375 kts | 170° |
| 2026-04-15 16:17 | 50.16681 | -0.02919 | 25188 ft | 378 kts | 170° |
| 2026-04-15 16:17 | 50.14134 | -0.01804 | 25660 ft | 383 kts | 170° |
| 2026-04-15 16:18 | 50.11546 | -0.00677 | 26117 ft | 387 kts | 170° |
| 2026-04-15 16:18 | 50.08968 | 0.00439 | 26537 ft | 390 kts | 171° |
| 2026-04-15 16:18 | 50.06329 | 0.01521 | 26954 ft | 392 kts | 172° |
| 2026-04-15 16:18 | 50.03668 | 0.02561 | 27323 ft | 396 kts | 172° |
| 2026-04-15 16:19 | 50.00967 | 0.03596 | 27688 ft | 399 kts | 172° |
| 2026-04-15 16:19 | 49.98288 | 0.04622 | 28023 ft | 402 kts | 172° |
| 2026-04-15 16:19 | 49.95887 | 0.05549 | 28323 ft | 405 kts | 172° |
| 2026-04-15 16:19 | 49.93011 | 0.06669 | 28648 ft | 408 kts | 172° |
| 2026-04-15 16:20 | 49.90239 | 0.07755 | 28956 ft | 411 kts | 172° |
| 2026-04-15 16:20 | 49.87456 | 0.08850 | 29279 ft | 414 kts | 172° |
| 2026-04-15 16:20 | 49.84750 | 0.09911 | 29589 ft | 417 kts | 172° |
| 2026-04-15 16:20 | 49.81950 | 0.11013 | 29886 ft | 420 kts | 172° |
| 2026-04-15 16:21 | 49.79106 | 0.12131 | 30191 ft | 423 kts | 172° |
| 2026-04-15 16:21 | 49.76248 | 0.13248 | 30456 ft | 426 kts | 172° |
| 2026-04-15 16:21 | 49.73366 | 0.14372 | 30724 ft | 428 kts | 172° |
| 2026-04-15 16:21 | 49.70456 | 0.15499 | 30969 ft | 431 kts | 172° |
| 2026-04-15 16:22 | 49.67570 | 0.16619 | 31219 ft | 433 kts | 172° |
| 2026-04-15 16:22 | 49.64638 | 0.17782 | 31479 ft | 436 kts | 171° |
| 2026-04-15 16:22 | 49.61693 | 0.18975 | 31738 ft | 438 kts | 171° |
| 2026-04-15 16:22 | 49.58723 | 0.20183 | 31972 ft | 441 kts | 171° |
| 2026-04-15 16:23 | 49.55731 | 0.21395 | 32200 ft | 443 kts | 171° |
| 2026-04-15 16:23 | 49.52782 | 0.22584 | 32484 ft | 444 kts | 171° |
| 2026-04-15 16:23 | 49.49813 | 0.23777 | 32834 ft | 444 kts | 171° |
| 2026-04-15 16:23 | 49.46851 | 0.24964 | 33139 ft | 444 kts | 171° |
| 2026-04-15 16:24 | 49.43813 | 0.26179 | 33456 ft | 445 kts | 171° |
| 2026-04-15 16:24 | 49.40847 | 0.27362 | 33784 ft | 445 kts | 171° |
| 2026-04-15 16:24 | 49.37844 | 0.28560 | 34114 ft | 445 kts | 171° |
| 2026-04-15 16:24 | 49.34846 | 0.29758 | 34371 ft | 446 kts | 171° |
| 2026-04-15 16:25 | 49.31842 | 0.30957 | 34605 ft | 447 kts | 171° |
| 2026-04-15 16:25 | 49.28861 | 0.32157 | 34846 ft | 448 kts | 171° |
| 2026-04-15 16:25 | 49.25919 | 0.33375 | 35054 ft | 450 kts | 171° |
| 2026-04-15 16:26 | 49.19808 | 0.35975 | 35130 ft | 462 kts | 170° |
| 2026-04-15 16:26 | 49.13561 | 0.38650 | 35128 ft | 472 kts | 170° |
| 2026-04-15 16:27 | 49.07199 | 0.41331 | 35124 ft | 467 kts | 170° |
| 2026-04-15 16:27 | 49.01033 | 0.43914 | 35132 ft | 458 kts | 170° |
| 2026-04-15 16:28 | 48.94869 | 0.46469 | 35137 ft | 459 kts | 170° |
| 2026-04-15 16:28 | 48.88705 | 0.49023 | 35137 ft | 460 kts | 170° |
| 2026-04-15 16:29 | 48.82501 | 0.51596 | 35140 ft | 462 kts | 170° |
| 2026-04-15 16:29 | 48.76327 | 0.54140 | 35146 ft | 463 kts | 170° |
| 2026-04-15 16:30 | 48.70050 | 0.56617 | 35144 ft | 464 kts | 171° |
| 2026-04-15 16:30 | 48.63910 | 0.58976 | 35147 ft | 465 kts | 171° |
| 2026-04-15 16:31 | 48.57621 | 0.61417 | 35153 ft | 467 kts | 170° |
| 2026-04-15 16:31 | 48.51299 | 0.63882 | 35151 ft | 468 kts | 170° |
| 2026-04-15 16:32 | 48.44970 | 0.66431 | 35153 ft | 470 kts | 169° |
| 2026-04-15 16:32 | 48.38646 | 0.69039 | 35157 ft | 471 kts | 169° |
| 2026-04-15 16:33 | 48.32354 | 0.71617 | 35157 ft | 473 kts | 169° |
| 2026-04-15 16:33 | 48.25997 | 0.74183 | 35157 ft | 473 kts | 169° |
| 2026-04-15 16:34 | 48.19604 | 0.76730 | 35158 ft | 475 kts | 169° |
| 2026-04-15 16:34 | 48.13200 | 0.79231 | 35164 ft | 476 kts | 169° |
| 2026-04-15 16:35 | 48.06779 | 0.81725 | 35162 ft | 478 kts | 169° |
| 2026-04-15 16:35 | 48.00468 | 0.84198 | 35163 ft | 478 kts | 169° |
| 2026-04-15 16:36 | 47.93978 | 0.86737 | 35158 ft | 480 kts | 169° |
| 2026-04-15 16:36 | 47.87559 | 0.89239 | 35177 ft | 481 kts | 169° |
| 2026-04-15 16:37 | 47.81061 | 0.91761 | 35173 ft | 482 kts | 168° |
| 2026-04-15 16:37 | 47.74557 | 0.94273 | 35175 ft | 483 kts | 168° |
| 2026-04-15 16:38 | 47.68040 | 0.96780 | 35179 ft | 485 kts | 168° |
| 2026-04-15 16:38 | 47.62613 | 0.98876 | 35179 ft | 485 kts | 168° |
| 2026-04-15 16:39 | 47.56027 | 1.01418 | 35185 ft | 487 kts | 168° |
| 2026-04-15 16:39 | 47.49463 | 1.03930 | 35187 ft | 487 kts | 168° |
| 2026-04-15 16:40 | 47.43766 | 1.05967 | 35190 ft | 486 kts | 174° |
| 2026-04-15 16:40 | 47.37133 | 1.06307 | 35193 ft | 482 kts | 185° |
| 2026-04-15 16:41 | 47.30410 | 1.06147 | 35197 ft | 483 kts | 185° |
| 2026-04-15 16:41 | 47.23710 | 1.05993 | 35192 ft | 484 kts | 185° |
| 2026-04-15 16:42 | 47.16960 | 1.05832 | 35193 ft | 486 kts | 184° |
| 2026-04-15 16:42 | 47.10229 | 1.05676 | 35201 ft | 486 kts | 184° |
| 2026-04-15 16:43 | 47.03428 | 1.05517 | 35202 ft | 488 kts | 184° |
| 2026-04-15 16:43 | 46.96625 | 1.05299 | 35206 ft | 488 kts | 185° |
| 2026-04-15 16:44 | 46.89873 | 1.04984 | 35206 ft | 489 kts | 185° |
| 2026-04-15 16:44 | 46.83060 | 1.04658 | 35210 ft | 490 kts | 185° |
| 2026-04-15 16:45 | 46.76221 | 1.04367 | 35211 ft | 491 kts | 185° |
| 2026-04-15 16:45 | 46.69503 | 1.04091 | 35212 ft | 492 kts | 185° |
| 2026-04-15 16:46 | 46.62679 | 1.03802 | 35216 ft | 493 kts | 185° |
| 2026-04-15 16:46 | 46.55850 | 1.03519 | 35216 ft | 494 kts | 185° |
| 2026-04-15 16:47 | 46.48916 | 1.03241 | 35218 ft | 496 kts | 184° |
| 2026-04-15 16:47 | 46.42029 | 1.03145 | 35221 ft | 497 kts | 183° |
| 2026-04-15 16:48 | 46.38292 | 1.03146 | 35232 ft | 498 kts | 182° |
| 2026-04-15 16:48 | 46.31395 | 1.03136 | 35223 ft | 499 kts | 183° |
| 2026-04-15 16:49 | 46.24434 | 1.03044 | 35226 ft | 500 kts | 183° |
| 2026-04-15 16:49 | 46.17489 | 1.02954 | 35226 ft | 501 kts | 183° |
| 2026-04-15 16:50 | 46.10489 | 1.02877 | 35231 ft | 502 kts | 183° |
| 2026-04-15 16:50 | 46.03659 | 1.02797 | 35239 ft | 502 kts | 183° |
| 2026-04-15 16:51 | 45.96610 | 1.02720 | 35243 ft | 504 kts | 182° |
| 2026-04-15 16:51 | 45.89635 | 1.02649 | 35245 ft | 504 kts | 182° |
| 2026-04-15 16:52 | 45.82595 | 1.02607 | 35246 ft | 506 kts | 179° |
| 2026-04-15 16:52 | 45.75583 | 1.04084 | 35243 ft | 508 kts | 171° |
| 2026-04-15 16:53 | 45.68649 | 1.05891 | 35241 ft | 510 kts | 170° |
| 2026-04-15 16:53 | 45.61657 | 1.07700 | 35231 ft | 510 kts | 170° |
| 2026-04-15 16:54 | 45.54683 | 1.09484 | 35227 ft | 511 kts | 170° |
| 2026-04-15 16:54 | 45.47654 | 1.11274 | 35224 ft | 512 kts | 170° |
| 2026-04-15 16:55 | 45.40613 | 1.13064 | 35221 ft | 513 kts | 170° |
| 2026-04-15 16:55 | 45.33724 | 1.14815 | 35221 ft | 514 kts | 170° |
| 2026-04-15 16:56 | 45.26665 | 1.16598 | 35221 ft | 515 kts | 170° |
| 2026-04-15 16:56 | 45.19627 | 1.18379 | 35223 ft | 515 kts | 171° |
| 2026-04-15 16:56 | 45.16047 | 1.18854 | 35220 ft | 515 kts | 182° |
| 2026-04-15 16:57 | 45.12485 | 1.18439 | 35222 ft | 512 kts | 193° |
| 2026-04-15 16:57 | 45.05496 | 1.16625 | 35221 ft | 512 kts | 193° |
| 2026-04-15 16:58 | 44.98489 | 1.14834 | 35222 ft | 514 kts | 193° |
| 2026-04-15 16:58 | 44.91421 | 1.13034 | 35225 ft | 514 kts | 193° |
| 2026-04-15 16:59 | 44.84388 | 1.11248 | 35218 ft | 516 kts | 193° |
| 2026-04-15 16:59 | 44.77310 | 1.09447 | 35223 ft | 516 kts | 193° |
| 2026-04-15 17:00 | 44.70216 | 1.07637 | 35223 ft | 518 kts | 193° |
| 2026-04-15 17:00 | 44.63271 | 1.05879 | 35226 ft | 518 kts | 193° |
| 2026-04-15 17:01 | 44.56158 | 1.04094 | 35355 ft | 519 kts | 193° |
| 2026-04-15 17:01 | 44.52591 | 1.03197 | 35158 ft | 519 kts | 193° |
| 2026-04-15 17:01 | 44.49037 | 1.02297 | 35238 ft | 520 kts | 193° |
| 2026-04-15 17:02 | 44.41959 | 1.00502 | 35223 ft | 519 kts | 193° |
| 2026-04-15 17:02 | 44.34834 | 0.98717 | 35220 ft | 519 kts | 192° |
| 2026-04-15 17:03 | 44.27762 | 0.96955 | 35223 ft | 518 kts | 192° |
| 2026-04-15 17:03 | 44.20652 | 0.95187 | 35221 ft | 518 kts | 192° |
| 2026-04-15 17:04 | 44.13551 | 0.93422 | 35221 ft | 517 kts | 192° |
| 2026-04-15 17:04 | 44.06487 | 0.91664 | 35221 ft | 517 kts | 193° |
| 2026-04-15 17:05 | 43.99398 | 0.89911 | 35222 ft | 517 kts | 192° |
| 2026-04-15 17:05 | 43.92473 | 0.88206 | 35220 ft | 517 kts | 193° |
| 2026-04-15 17:06 | 43.85441 | 0.86452 | 35222 ft | 516 kts | 193° |
| 2026-04-15 17:06 | 43.78405 | 0.84556 | 35222 ft | 515 kts | 194° |
| 2026-04-15 17:07 | 43.71368 | 0.82625 | 35219 ft | 514 kts | 194° |
| 2026-04-15 17:07 | 43.64319 | 0.80730 | 35223 ft | 514 kts | 193° |
| 2026-04-15 17:08 | 43.57332 | 0.78884 | 35224 ft | 513 kts | 193° |
| 2026-04-15 17:08 | 43.50301 | 0.77021 | 35225 ft | 513 kts | 194° |
| 2026-04-15 17:09 | 43.43316 | 0.75172 | 35228 ft | 512 kts | 194° |
| 2026-04-15 17:09 | 43.36320 | 0.73323 | 35228 ft | 512 kts | 194° |
| 2026-04-15 17:10 | 43.29361 | 0.71496 | 35227 ft | 511 kts | 194° |
| 2026-04-15 17:10 | 43.22526 | 0.69698 | 35231 ft | 510 kts | 194° |
| 2026-04-15 17:11 | 43.15559 | 0.67871 | 35229 ft | 509 kts | 194° |
| 2026-04-15 17:11 | 43.08645 | 0.66064 | 35235 ft | 509 kts | 194° |
| 2026-04-15 17:12 | 42.98205 | 0.63348 | 35224 ft | 507 kts | 194° |
| 2026-04-15 17:12 | 42.91263 | 0.61533 | 35234 ft | 506 kts | 193° |
| 2026-04-15 17:13 | 42.84418 | 0.59749 | 35225 ft | 504 kts | 194° |
| 2026-04-15 17:13 | 42.77523 | 0.57964 | 35223 ft | 503 kts | 194° |
| 2026-04-15 17:14 | 42.70645 | 0.56195 | 35212 ft | 503 kts | 194° |
| 2026-04-15 17:14 | 42.63779 | 0.54421 | 35200 ft | 502 kts | 194° |
| 2026-04-15 17:15 | 42.56911 | 0.52654 | 35187 ft | 503 kts | 194° |
| 2026-04-15 17:15 | 42.50199 | 0.50939 | 35176 ft | 503 kts | 194° |
| 2026-04-15 17:16 | 42.43325 | 0.49186 | 35163 ft | 504 kts | 194° |
| 2026-04-15 17:16 | 42.36425 | 0.47423 | 35144 ft | 504 kts | 194° |
| 2026-04-15 17:17 | 42.29513 | 0.45650 | 35131 ft | 506 kts | 194° |
| 2026-04-15 17:17 | 42.22602 | 0.43883 | 35127 ft | 505 kts | 194° |
| 2026-04-15 17:18 | 42.15967 | 0.42209 | 35121 ft | 506 kts | 194° |
| 2026-04-15 17:18 | 42.09067 | 0.40473 | 35120 ft | 505 kts | 194° |
| 2026-04-15 17:19 | 42.02189 | 0.38740 | 35121 ft | 504 kts | 194° |
| 2026-04-15 17:19 | 41.95270 | 0.37000 | 35122 ft | 504 kts | 194° |
| 2026-04-15 17:20 | 41.88417 | 0.35269 | 35126 ft | 504 kts | 194° |
| 2026-04-15 17:20 | 41.81667 | 0.33559 | 35129 ft | 503 kts | 194° |
| 2026-04-15 17:21 | 41.74803 | 0.31850 | 35141 ft | 502 kts | 194° |
| 2026-04-15 17:23 | 41.73538 | 0.31522 | 34861 ft | 486 kts | 194° |
| 2026-04-15 17:23 | 41.70268 | 0.30990 | 29955 ft | 510 kts | 167° |
| 2026-04-15 17:23 | 41.66710 | 0.33230 | 25166 ft | 608 kts | 150° |
| 2026-04-15 17:23 | 41.63051 | 0.35821 | 25871 ft | 559 kts | 154° |
| 2026-04-15 17:24 | 41.59641 | 0.37449 | 28827 ft | 514 kts | 165° |
| 2026-04-15 17:24 | 41.56133 | 0.38187 | 29121 ft | 510 kts | 185° |
| 2026-04-15 17:24 | 41.52748 | 0.37295 | 30172 ft | 487 kts | 206° |
| 2026-04-15 17:24 | 41.49688 | 0.35366 | 30672 ft | 481 kts | 211° |
| 2026-04-15 17:25 | 41.46696 | 0.33350 | 31029 ft | 482 kts | 212° |
| 2026-04-15 17:25 | 41.43904 | 0.30963 | 31343 ft | 473 kts | 226° |
| 2026-04-15 17:25 | 41.41603 | 0.28093 | 31633 ft | 473 kts | 227° |
| 2026-04-15 17:25 | 41.38890 | 0.25546 | 31913 ft | 483 kts | 215° |
| 2026-04-15 17:26 | 41.36990 | 0.23975 | 32091 ft | 481 kts | 221° |
| 2026-04-15 17:26 | 41.34415 | 0.21172 | 32338 ft | 481 kts | 223° |
| 2026-04-15 17:26 | 41.31490 | 0.18923 | 32690 ft | 492 kts | 203° |
| 2026-04-15 17:26 | 41.28116 | 0.17936 | 33034 ft | 500 kts | 188° |
| 2026-04-15 17:27 | 41.24683 | 0.17760 | 33400 ft | 502 kts | 182° |
| 2026-04-15 17:27 | 41.21180 | 0.17883 | 33785 ft | 502 kts | 178° |
| 2026-04-15 17:27 | 41.17716 | 0.18113 | 34126 ft | 501 kts | 183° |
| 2026-04-15 17:27 | 41.14209 | 0.17763 | 34431 ft | 498 kts | 192° |
| 2026-04-15 17:28 | 41.10951 | 0.16538 | 34755 ft | 487 kts | 208° |
| 2026-04-15 17:28 | 41.07856 | 0.14726 | 35030 ft | 488 kts | 208° |
| 2026-04-15 17:28 | 41.01466 | 0.11547 | 35118 ft | 491 kts | 202° |
| 2026-04-15 17:29 | 40.94882 | 0.09002 | 35128 ft | 491 kts | 199° |
| 2026-04-15 17:29 | 40.88398 | 0.06666 | 35600 ft | 462 kts | 200° |
| 2026-04-15 17:30 | 40.85327 | 0.05580 | 36459 ft | 448 kts | 201° |
| 2026-04-15 17:30 | 40.84771 | 0.05378 | 36484 ft | 447 kts | 201° |
| 2026-04-15 17:30 | 40.81714 | 0.03769 | 33181 ft | 446 kts | 226° |
| 2026-04-15 17:31 | 40.79312 | 0.00910 | 32419 ft | 451 kts | 226° |
| 2026-04-15 17:31 | 40.76700 | -0.01323 | 32835 ft | 453 kts | 206° |
| 2026-04-15 17:31 | 40.73643 | -0.02506 | 32352 ft | 463 kts | 201° |
| 2026-04-15 17:31 | 40.70942 | -0.04919 | 30265 ft | 480 kts | 229° |
| 2026-04-15 17:32 | 40.68604 | -0.07919 | 29868 ft | 461 kts | 228° |
| 2026-04-15 17:32 | 40.66113 | -0.10850 | 26708 ft | 503 kts | 223° |
| 2026-04-15 17:32 | 40.63085 | -0.13370 | 25699 ft | 539 kts | 203° |
| 2026-04-15 17:32 | 40.59359 | -0.13904 | 26452 ft | 541 kts | 173° |
| 2026-04-15 17:33 | 40.56252 | -0.11844 | 20352 ft | 510 kts | 124° |
| 2026-04-15 17:33 | 40.55034 | -0.06762 | 12727 ft | 629 kts | 95° |
| 2026-04-15 17:33 | 40.54627 | -0.01386 | 14159 ft | 523 kts | 92° |
| 2026-04-15 17:33 | 40.54438 | 0.02718 | 20294 ft | 401 kts | 91° |
| 2026-04-15 17:34 | 40.54214 | 0.06350 | 23152 ft | 405 kts | 93° |
| 2026-04-15 17:34 | 40.53834 | 0.10185 | 19921 ft | 456 kts | 99° |
| 2026-04-15 17:34 | 40.52628 | 0.14522 | 12897 ft | 523 kts | 111° |
| 2026-04-15 17:34 | 40.50426 | 0.18635 | 5891 ft | 591 kts | 128° |
| 2026-04-15 17:35 | 40.48034 | 0.22597 | 7903 ft | 506 kts | 127° |